Time;durP1;ratioP1;P1;durP2;ratioP2;P2;SDS_P1;SDS_P2;PMS_P1;PMS_P2;Temp;Humidity;BMP_temperature;BMP_pressure;BME280_temperature;BME280_humidity;BME280_pressure;Samples;Min_cycle;Max_cycle;Signal;HPM_P1;HPM_P2
2023/03/05 00:01:41;;;;;;;18.40;8.20;;;;;;;-1.47;61.49;100242.01;104261;1279;99841;-77
2023/03/05 00:04:26;;;;;;;22.20;10.00;;;;;;;-1.50;61.74;100241.39;103904;1279;99375;-77
2023/03/05 00:07:13;;;;;;;19.30;9.30;;;;;;;-1.53;61.89;100242.13;104319;1279;99269;-77
2023/03/05 00:09:59;;;;;;;17.60;8.60;;;;;;;-1.56;62.02;100238.33;105003;1279;102705;-77
2023/03/05 00:12:44;;;;;;;18.70;7.40;;;;;;;-1.60;62.09;100234.39;104259;1277;99360;-78
2023/03/05 00:15:28;;;;;;;19.80;7.40;;;;;;;-1.61;62.23;100232.03;104319;1280;99798;-77
2023/03/05 00:18:13;;;;;;;18.10;8.00;;;;;;;-1.61;62.44;100233.32;104306;1279;99463;-77
2023/03/05 00:20:58;;;;;;;17.30;7.30;;;;;;;-1.60;62.62;100227.77;104321;1279;100942;-77
2023/03/05 00:23:42;;;;;;;20.60;8.70;;;;;;;-1.58;62.70;100223.23;104327;1276;102816;-77
2023/03/05 00:26:28;;;;;;;23.20;8.30;;;;;;;-1.57;62.81;100222.27;104281;1276;100826;-77
2023/03/05 00:29:17;;;;;;;19.80;7.50;;;;;;;-1.59;62.82;100221.08;103833;1282;99383;-78
2023/03/05 00:32:02;;;;;;;18.60;8.00;;;;;;;-1.61;63.03;100218.20;103926;1276;99453;-77
2023/03/05 00:34:48;;;;;;;15.30;7.40;;;;;;;-1.62;63.10;100214.96;104163;1275;99350;-77
2023/03/05 00:37:33;;;;;;;19.70;8.20;;;;;;;-1.63;63.25;100209.11;104212;1276;102969;-76
2023/03/05 00:40:19;;;;;;;18.90;6.90;;;;;;;-1.64;63.46;100208.80;104125;1275;100454;-76
2023/03/05 00:43:05;;;;;;;16.70;7.30;;;;;;;-1.64;63.69;100202.69;103809;1276;101692;-76
2023/03/05 00:45:51;;;;;;;14.70;6.40;;;;;;;-1.66;63.93;100196.22;103837;1279;99369;-77
2023/03/05 00:48:36;;;;;;;18.20;6.90;;;;;;;-1.69;64.13;100190.66;104028;1276;99898;-77
2023/03/05 00:51:23;;;;;;;20.00;9.20;;;;;;;-1.70;64.39;100190.77;103962;1279;102815;-77
2023/03/05 00:54:08;;;;;;;20.20;8.60;;;;;;;-1.71;64.53;100189.41;104245;1277;100747;-79
2023/03/05 00:56:53;;;;;;;17.30;8.90;;;;;;;-1.70;64.65;100189.20;104252;1276;99368;-78
2023/03/05 00:59:37;;;;;;;18.90;8.60;;;;;;;-1.71;64.91;100186.12;103804;1280;100230;-76
2023/03/05 01:02:22;;;;;;;18.40;8.30;;;;;;;-1.73;65.07;100187.45;104215;1280;99806;-77
2023/03/05 01:05:10;;;;;;;22.00;8.50;;;;;;;-1.74;65.21;100181.65;104291;1279;102642;-76
2023/03/05 01:07:55;;;;;;;16.90;8.30;;;;;;;-1.75;65.48;100178.05;103976;1276;100881;-77
2023/03/05 01:10:40;;;;;;;19.30;8.30;;;;;;;-1.77;65.68;100174.69;104048;1276;100648;-76
2023/03/05 01:13:24;;;;;;;19.90;9.20;;;;;;;-1.77;65.92;100168.58;104173;1276;99326;-77
2023/03/05 01:16:09;;;;;;;25.70;8.10;;;;;;;-1.75;66.14;100164.04;104163;1277;99380;-76
2023/03/05 01:18:54;;;;;;;18.30;8.30;;;;;;;-1.75;66.29;100161.24;103919;1280;102798;-77
2023/03/05 01:21:39;;;;;;;19.20;8.50;;;;;;;-1.76;66.42;100156.77;103922;1279;101439;-78
2023/03/05 01:24:24;;;;;;;22.10;8.40;;;;;;;-1.76;66.54;100155.38;103919;1280;99389;-77
2023/03/05 01:27:09;;;;;;;19.90;7.70;;;;;;;-1.76;66.73;100152.73;104018;1276;99259;-77
2023/03/05 01:29:55;;;;;;;21.40;8.60;;;;;;;-1.79;66.80;100157.67;104256;1279;99851;-77
2023/03/05 01:32:40;;;;;;;19.30;8.60;;;;;;;-1.80;66.93;100160.38;104177;1280;102720;-77
2023/03/05 01:35:25;;;;;;;22.20;9.00;;;;;;;-1.80;67.19;100156.16;103801;1282;100265;-77
2023/03/05 01:38:10;;;;;;;25.60;10.30;;;;;;;-1.82;67.33;100153.89;104004;1279;99454;-82
2023/03/05 01:40:54;;;;;;;36.20;15.70;;;;;;;-1.82;67.55;100152.49;103911;1276;99405;-76
2023/03/05 01:43:40;;;;;;;36.70;17.70;;;;;;;-1.80;67.62;100150.44;103794;1279;99789;-78
2023/03/05 01:46:25;;;;;;;37.80;14.40;;;;;;;-1.82;67.58;100149.32;104063;1277;102791;-78
2023/03/05 01:49:24;;;;;;;28.10;12.40;;;;;;;-1.83;67.73;100146.47;103874;1281;99358;-78
2023/03/05 01:52:12;;;;;;;24.30;11.70;;;;;;;-1.84;67.84;100143.91;104167;1277;99354;-77
2023/03/05 01:55:03;;;;;;;23.40;10.40;;;;;;;-1.86;67.99;100141.63;104312;1279;99352;-76
2023/03/05 01:58:05;;;;;;;24.60;9.00;;;;;;;-1.87;68.17;100139.08;103796;1279;99814;-76
2023/03/05 02:00:52;;;;;;;24.70;10.70;;;;;;;-1.91;68.23;100132.98;104274;1279;102815;-77
2023/03/05 02:03:38;;;;;;;24.80;10.50;;;;;;;-1.95;68.38;100129.20;104073;1279;99319;-76
2023/03/05 02:06:23;;;;;;;20.60;9.10;;;;;;;-1.98;68.49;100129.43;104197;1276;99380;-77
2023/03/05 02:09:08;;;;;;;27.80;11.40;;;;;;;-1.99;68.65;100130.38;104233;1279;99463;-77
2023/03/05 02:11:55;;;;;;;28.20;12.00;;;;;;;-1.99;68.84;100128.34;104312;1277;99837;-77
2023/03/05 02:14:44;;;;;;;29.60;13.50;;;;;;;-2.01;68.80;100128.45;104377;1279;103553;-77
2023/03/05 02:17:29;;;;;;;36.10;15.10;;;;;;;-2.02;68.94;100125.55;104281;1279;99471;-77
2023/03/05 02:20:18;;;;;;;28.20;11.10;;;;;;;-2.02;68.86;100124.00;104269;1276;99358;-77
2023/03/05 02:23:02;;;;;;;21.30;9.30;;;;;;;-2.05;68.89;100119.35;104041;1277;99358;-77
2023/03/05 02:25:47;;;;;;;30.30;12.80;;;;;;;-2.08;69.13;100117.82;104233;1277;99787;-77
2023/03/05 02:28:44;;;;;;;39.80;16.90;;;;;;;-2.08;69.25;100115.52;104085;1276;103955;-78
2023/03/05 02:31:29;;;;;;;34.60;15.20;;;;;;;-2.08;69.26;100115.67;104307;1284;100745;-77
2023/03/05 02:34:14;;;;;;;26.30;12.10;;;;;;;-2.08;69.25;100108.92;104221;1276;99342;-76
2023/03/05 02:37:01;;;;;;;27.80;12.50;;;;;;;-2.10;69.14;100110.09;103656;1277;99290;-78
2023/03/05 02:39:46;;;;;;;39.20;16.20;;;;;;;-2.12;69.21;100108.37;104021;1280;99806;-77
2023/03/05 02:42:32;;;;;;;43.50;19.20;;;;;;;-2.15;69.29;100106.13;103966;1279;103559;-78
2023/03/05 02:45:18;;;;;;;30.30;14.50;;;;;;;-2.16;69.47;100103.58;103996;1276;100332;-76
2023/03/05 02:48:04;;;;;;;29.50;11.70;;;;;;;-2.17;69.58;100097.86;103991;1277;99934;-78
2023/03/05 02:50:49;;;;;;;30.60;13.10;;;;;;;-2.18;69.60;100098.98;103642;1283;99386;-78
2023/03/05 02:53:35;;;;;;;47.00;21.20;;;;;;;-2.19;69.53;100096.31;103904;1288;99890;-78
2023/03/05 02:56:20;;;;;;;25.60;10.20;;;;;;;-2.20;69.50;100091.62;103657;1280;202802;-78
2023/03/05 02:59:05;;;;;;;33.50;12.70;;;;;;;-2.22;69.54;100093.58;103942;1279;99463;-78
2023/03/05 03:01:50;;;;;;;26.90;11.20;;;;;;;-2.23;69.48;100091.02;103922;1279;100601;-77
2023/03/05 03:04:34;;;;;;;19.70;8.80;;;;;;;-2.21;69.69;100086.18;103911;1274;99362;-76
2023/03/05 03:07:19;;;;;;;21.80;9.40;;;;;;;-2.21;69.62;100088.05;103998;1276;99947;-77
2023/03/05 03:10:04;;;;;;;17.40;8.90;;;;;;;-2.21;69.53;100090.36;104298;1279;102751;-76
2023/03/05 03:12:49;;;;;;;18.20;8.90;;;;;;;-2.21;69.48;100088.28;103906;1280;100723;-77
2023/03/05 03:15:34;;;;;;;21.00;8.60;;;;;;;-2.21;69.54;100087.19;103977;1279;100187;-76
2023/03/05 03:18:18;;;;;;;19.00;7.40;;;;;;;-2.19;69.60;100087.05;104259;1274;99677;-77
2023/03/05 03:21:04;;;;;;;19.10;7.00;;;;;;;-2.17;69.67;100088.80;104288;1278;99792;-78
2023/03/05 03:23:49;;;;;;;16.70;7.30;;;;;;;-2.17;69.62;100084.23;104252;1276;103984;-77
2023/03/05 03:26:34;;;;;;;14.30;6.80;;;;;;;-2.16;69.77;100082.08;104335;1280;99380;-77
2023/03/05 03:29:18;;;;;;;19.50;7.60;;;;;;;-2.17;69.70;100078.86;104248;1280;99493;-77
2023/03/05 03:32:03;;;;;;;18.00;7.50;;;;;;;-2.17;69.67;100078.30;103790;1276;99280;-78
2023/03/05 03:34:48;;;;;;;16.80;6.70;;;;;;;-2.15;69.85;100078.16;103981;1289;100522;-77
2023/03/05 03:37:33;;;;;;;19.80;7.60;;;;;;;-2.14;69.94;100072.79;103950;1274;102790;-78
2023/03/05 03:40:17;;;;;;;20.60;6.80;;;;;;;-2.12;69.93;100072.53;104432;1274;99291;-78
2023/03/05 03:43:03;;;;;;;15.50;7.50;;;;;;;-2.11;69.95;100064.38;104425;1276;99260;-78
2023/03/05 03:45:47;;;;;;;21.20;7.40;;;;;;;-2.12;69.82;100063.91;104503;1279;99752;-78
2023/03/05 03:48:33;;;;;;;21.40;8.20;;;;;;;-2.12;69.70;100057.98;104656;1275;99506;-78
2023/03/05 03:51:18;;;;;;;20.80;8.30;;;;;;;-2.11;69.79;100056.52;104611;1280;103532;-78
2023/03/05 03:54:02;;;;;;;22.10;9.20;;;;;;;-2.10;69.80;100055.20;104455;1279;99886;-79
2023/03/05 03:56:47;;;;;;;25.10;9.70;;;;;;;-2.08;69.96;100051.52;104433;1280;99398;-77
2023/03/05 03:59:33;;;;;;;18.40;8.10;;;;;;;-2.07;69.80;100050.73;104087;1274;99911;-78
2023/03/05 04:02:17;;;;;;;21.20;8.90;;;;;;;-2.08;69.68;100045.21;104227;1279;99885;-77
2023/03/05 04:05:03;;;;;;;23.50;8.90;;;;;;;-2.09;69.68;100041.27;104325;1280;102704;-76
2023/03/05 04:07:48;;;;;;;22.70;9.00;;;;;;;-2.08;69.76;100038.08;103964;1282;100374;-77
2023/03/05 04:10:32;;;;;;;25.00;8.70;;;;;;;-2.07;69.82;100032.56;104168;1295;99358;-78
2023/03/05 04:13:17;;;;;;;19.10;7.70;;;;;;;-2.07;69.79;100030.27;104200;1279;100751;-78
2023/03/05 04:16:02;;;;;;;18.60;8.40;;;;;;;-2.06;69.87;100025.98;103908;1277;101075;-77
2023/03/05 04:18:47;;;;;;;16.70;7.30;;;;;;;-2.06;69.91;100029.67;104382;1279;103579;-77
2023/03/05 04:21:32;;;;;;;16.80;6.70;;;;;;;-2.06;69.79;100028.09;104390;1277;99360;-78
2023/03/05 04:24:16;;;;;;;21.20;8.00;;;;;;;-2.06;69.96;100023.17;104225;1276;99386;-78
2023/03/05 04:27:01;;;;;;;17.20;7.50;;;;;;;-2.04;70.13;100022.54;104349;1278;99670;-78
2023/03/05 04:29:46;;;;;;;23.00;8.30;;;;;;;-2.04;70.22;100022.34;104192;1279;99879;-77
2023/03/05 04:32:30;;;;;;;17.60;7.80;;;;;;;-2.03;70.27;100017.50;103917;1276;102753;-78
2023/03/05 04:35:15;;;;;;;23.00;9.40;;;;;;;-2.03;70.27;100009.27;103801;1278;99445;-76
2023/03/05 04:37:59;;;;;;;20.80;9.80;;;;;;;-2.01;70.30;100002.52;103911;1276;99394;-78
2023/03/05 04:40:45;;;;;;;19.60;7.50;;;;;;;-1.99;70.28;100000.59;103922;1279;99363;-78
2023/03/05 04:43:30;;;;;;;20.30;7.50;;;;;;;-1.99;70.20;100003.41;103955;1278;99879;-79
2023/03/05 04:46:15;;;;;;;20.60;7.90;;;;;;;-2.00;70.28;99995.56;103910;1277;103443;-76
2023/03/05 04:48:59;;;;;;;20.40;7.20;;;;;;;-2.03;70.28;99992.33;103954;1280;99332;-79
2023/03/05 04:51:44;;;;;;;18.90;7.50;;;;;;;-2.03;70.33;99990.44;103933;1280;99324;-77
2023/03/05 04:54:29;;;;;;;22.40;7.70;;;;;;;-2.04;70.42;99983.35;103932;1276;100588;-76
2023/03/05 04:57:14;;;;;;;14.50;6.40;;;;;;;-2.04;70.37;99981.76;103783;1277;99443;-76
2023/03/05 04:59:59;;;;;;;14.90;6.20;;;;;;;-2.08;70.44;99980.49;103982;1279;103694;-76
2023/03/05 05:02:46;;;;;;;20.80;8.20;;;;;;;-2.13;70.47;99982.10;103938;1278;99473;-76
2023/03/05 05:05:31;;;;;;;18.10;7.00;;;;;;;-2.14;70.59;99974.17;104510;1275;99189;-76
2023/03/05 05:08:16;;;;;;;19.60;7.90;;;;;;;-2.15;70.68;99976.57;103809;1279;99361;-76
2023/03/05 05:11:05;;;;;;;15.60;7.60;;;;;;;-2.17;70.72;99975.98;104043;1278;100547;-76
2023/03/05 05:13:50;;;;;;;15.80;6.70;;;;;;;-2.17;70.87;99974.58;104029;1276;103586;-77
2023/03/05 05:16:34;;;;;;;21.30;7.30;;;;;;;-2.16;70.95;99978.14;103980;1279;100457;-77
2023/03/05 05:19:19;;;;;;;18.80;7.80;;;;;;;-2.16;70.90;99977.34;103786;1280;99373;-76
2023/03/05 05:22:03;;;;;;;17.30;7.40;;;;;;;-2.18;70.92;99979.74;104121;1277;99365;-78
2023/03/05 05:24:48;;;;;;;13.90;7.30;;;;;;;-2.19;70.96;99978.02;103957;1279;99925;-76
2023/03/05 05:27:33;;;;;;;15.60;7.20;;;;;;;-2.19;70.98;99977.39;104130;1280;104767;-76
2023/03/05 05:30:18;;;;;;;20.60;7.60;;;;;;;-2.22;70.98;99977.11;103950;1280;99335;-77
2023/03/05 05:33:03;;;;;;;21.30;8.70;;;;;;;-2.25;70.93;99979.05;103983;1274;99402;-77
2023/03/05 05:35:48;;;;;;;14.90;7.00;;;;;;;-2.26;70.97;99976.67;103853;1277;99342;-76
2023/03/05 05:38:33;;;;;;;15.90;7.10;;;;;;;-2.26;71.05;99979.48;103856;1276;99825;-77
2023/03/05 05:41:19;;;;;;;17.80;7.10;;;;;;;-2.25;71.32;99980.66;103987;1275;103636;-76
2023/03/05 05:44:04;;;;;;;15.50;7.20;;;;;;;-2.23;71.48;99980.88;103783;1277;100509;-77
2023/03/05 05:46:49;;;;;;;21.00;7.90;;;;;;;-2.20;71.48;99979.95;103991;1280;99463;-77
2023/03/05 05:49:33;;;;;;;20.10;7.70;;;;;;;-2.18;71.51;99980.83;104055;1279;99458;-78
2023/03/05 05:52:18;;;;;;;18.50;8.10;;;;;;;-2.16;71.67;99978.02;104103;1274;99819;-76
2023/03/05 05:55:03;;;;;;;21.10;8.70;;;;;;;-2.14;71.71;99973.44;103896;1279;104238;-78
2023/03/05 05:57:48;;;;;;;17.70;7.70;;;;;;;-2.13;71.70;99969.55;103956;1280;99304;-77
2023/03/05 06:00:33;;;;;;;18.70;8.20;;;;;;;-2.13;71.65;99968.65;103951;1278;100089;-77
2023/03/05 06:03:17;;;;;;;15.60;6.90;;;;;;;-2.12;71.78;99963.02;104052;1277;100655;-78
2023/03/05 06:06:02;;;;;;;19.80;7.60;;;;;;;-2.11;71.89;99956.58;103693;1274;99892;-77
2023/03/05 06:08:48;;;;;;;14.20;6.60;;;;;;;-2.10;71.93;99957.05;104064;1276;102709;-78
2023/03/05 06:11:33;;;;;;;20.30;8.00;;;;;;;-2.09;72.09;99958.86;103791;1277;99358;-77
2023/03/05 06:14:18;;;;;;;24.30;9.70;;;;;;;-2.04;72.25;99962.70;103866;1279;99363;-76
2023/03/05 06:17:04;;;;;;;20.90;9.60;;;;;;;-2.00;72.27;99963.60;103830;1277;100626;-78
2023/03/05 06:19:48;;;;;;;16.20;7.80;;;;;;;-1.96;72.51;99955.93;104102;1278;99348;-77
2023/03/05 06:22:38;;;;;;;16.60;7.90;;;;;;;-1.91;72.80;99952.21;103921;1280;102784;-78
2023/03/05 06:25:22;;;;;;;17.80;7.50;;;;;;;-1.87;72.86;99950.67;104073;1278;99722;-78
2023/03/05 06:28:07;;;;;;;18.20;8.50;;;;;;;-1.83;72.97;99943.62;104268;1276;99370;-77
2023/03/05 06:31:03;;;;;;;15.00;7.80;;;;;;;-1.78;73.03;99940.22;104218;1279;99304;-77
2023/03/05 06:33:48;;;;;;;18.60;8.30;;;;;;;-1.72;73.24;99932.56;103908;1277;99815;-79
2023/03/05 06:36:33;;;;;;;17.10;8.30;;;;;;;-1.64;73.31;99918.91;103930;1276;102633;-75
2023/03/05 06:39:17;;;;;;;17.80;8.30;;;;;;;-1.58;73.32;99901.11;103961;1276;99325;-76
2023/03/05 06:42:02;;;;;;;18.70;7.00;;;;;;;-1.51;73.53;99882.02;104153;1279;99569;-76
2023/03/05 06:44:47;;;;;;;15.10;7.30;;;;;;;-1.45;73.52;99877.48;104313;1275;100518;-77
2023/03/05 06:47:32;;;;;;;20.30;8.10;;;;;;;-1.41;73.39;99883.97;104402;1279;99157;-77
2023/03/05 06:50:17;;;;;;;22.00;9.30;;;;;;;-1.38;73.30;99894.51;104294;1276;102861;-78
2023/03/05 06:53:02;;;;;;;18.30;10.30;;;;;;;-1.33;73.28;99915.88;104302;1279;99363;-77
2023/03/05 06:55:47;;;;;;;21.30;10.10;;;;;;;-1.32;73.03;99929.59;104274;1279;99826;-77
2023/03/05 06:58:32;;;;;;;19.70;9.60;;;;;;;-1.33;72.94;99927.02;104296;1276;99345;-76
2023/03/05 07:01:18;;;;;;;17.30;9.60;;;;;;;-1.32;73.05;99918.73;103999;1277;99802;-77
2023/03/05 07:04:03;;;;;;;18.30;9.90;;;;;;;-1.30;73.17;99921.31;104020;1279;104320;-77
2023/03/05 07:06:48;;;;;;;19.90;10.20;;;;;;;-1.27;73.31;99918.67;104351;1278;100578;-77
2023/03/05 07:09:33;;;;;;;20.00;9.70;;;;;;;-1.24;73.34;99914.58;104386;1277;99252;-77
2023/03/05 07:12:18;;;;;;;18.40;10.40;;;;;;;-1.22;73.27;99910.14;104272;1279;99373;-78
2023/03/05 07:15:03;;;;;;;20.00;10.10;;;;;;;-1.18;73.29;99909.67;104364;1278;99866;-77
2023/03/05 07:17:47;;;;;;;21.50;10.00;;;;;;;-1.17;73.29;99907.63;104317;1276;103507;-77
2023/03/05 07:20:36;;;;;;;22.60;9.70;;;;;;;-1.14;73.43;99904.08;104328;1279;99252;-77
2023/03/05 07:23:21;;;;;;;18.80;9.90;;;;;;;-1.11;73.46;99902.52;103749;1295;99368;-76
2023/03/05 07:26:06;;;;;;;21.10;12.10;;;;;;;-1.09;73.52;99903.05;104449;1277;99397;-77
2023/03/05 07:28:51;;;;;;;25.80;10.00;;;;;;;-1.06;73.67;99899.20;104262;1276;99882;-77
2023/03/05 07:31:36;;;;;;;24.40;12.60;;;;;;;-1.02;73.70;99896.89;104270;1280;104101;-77
2023/03/05 07:34:23;;;;;;;24.30;11.40;;;;;;;-0.96;73.67;99897.78;104069;1277;100341;-76
2023/03/05 07:37:08;;;;;;;23.30;10.40;;;;;;;-0.90;73.59;99896.55;104309;1279;99357;-78
2023/03/05 07:39:52;;;;;;;26.70;11.90;;;;;;;-0.85;73.44;99896.30;103908;1280;99409;-78
2023/03/05 07:42:37;;;;;;;21.50;10.60;;;;;;;-0.81;73.41;99893.29;104306;1277;99949;-77
2023/03/05 07:45:30;;;;;;;31.80;12.50;;;;;;;-0.75;73.47;99891.20;104464;1274;103511;-87
2023/03/05 07:48:19;;;;;;;61.70;24.90;;;;;;;-0.70;73.52;99891.50;105352;1274;100501;-81
2023/03/05 07:51:13;;;;;;;47.90;22.90;;;;;;;-0.67;73.41;99888.98;105505;1276;99326;-82
2023/03/05 07:53:59;;;;;;;37.50;17.70;;;;;;;-0.64;73.41;99890.48;105170;1274;99386;-82
2023/03/05 07:56:44;;;;;;;31.80;15.40;;;;;;;-0.60;73.47;99887.12;105200;1274;97932;-82
2023/03/05 07:59:30;;;;;;;37.90;17.90;;;;;;;-0.56;73.54;99885.53;104915;1275;104081;-81
2023/03/05 08:02:15;;;;;;;25.90;14.90;;;;;;;-0.51;73.35;99887.32;105237;1274;100971;-81
2023/03/05 08:05:00;;;;;;;29.00;15.30;;;;;;;-0.46;73.32;99886.38;104913;1275;99366;-83
2023/03/05 08:07:45;;;;;;;32.60;15.60;;;;;;;-0.41;73.46;99886.44;104679;1279;99341;-83
2023/03/05 08:10:32;;;;;;;30.10;13.50;;;;;;;-0.35;73.47;99889.23;104602;1280;100960;-83
2023/03/05 08:13:17;;;;;;;24.30;12.60;;;;;;;-0.30;73.38;99888.45;104923;1274;104045;-76
2023/03/05 08:16:07;;;;;;;29.90;13.90;;;;;;;-0.26;73.33;99884.05;104468;1276;100368;-80
2023/03/05 08:18:55;;;;;;;28.60;13.00;;;;;;;-0.23;73.17;99885.50;104363;1274;99322;-88
2023/03/05 08:21:40;;;;;;;36.10;15.80;;;;;;;-0.18;73.39;99890.50;104786;1276;99329;-83
2023/03/05 08:24:28;;;;;;;39.30;19.30;;;;;;;-0.13;73.32;99888.85;104724;1279;99768;-84
2023/03/05 08:27:14;;;;;;;36.80;19.80;;;;;;;-0.07;73.68;99887.21;104720;1280;103879;-83
2023/03/05 08:30:01;;;;;;;35.00;17.10;;;;;;;-0.02;73.56;99887.67;105103;1279;100370;-83
2023/03/05 08:32:48;;;;;;;32.80;14.60;;;;;;;0.02;73.69;99883.62;104800;1277;99431;-82
2023/03/05 08:35:33;;;;;;;30.00;13.80;;;;;;;0.06;73.62;99883.79;104969;1274;99258;-83
2023/03/05 08:38:18;;;;;;;35.40;15.90;;;;;;;0.08;73.49;99881.69;104709;1273;99344;-84
2023/03/05 08:41:04;;;;;;;33.10;15.60;;;;;;;0.10;73.35;99879.61;104941;1274;104931;-85
2023/03/05 08:43:50;;;;;;;30.30;15.20;;;;;;;0.11;73.39;99879.98;104609;1274;100341;-89
2023/03/05 08:46:38;;;;;;;33.60;17.10;;;;;;;0.14;73.54;99878.86;104790;1274;99405;-84
2023/03/05 08:49:23;;;;;;;41.90;16.30;;;;;;;0.17;73.64;99879.64;104733;1277;99531;-81
2023/03/05 08:52:08;;;;;;;36.20;16.20;;;;;;;0.20;73.57;99879.51;105251;1279;100730;-84
2023/03/05 08:54:54;;;;;;;48.20;20.50;;;;;;;0.24;73.62;99873.23;104920;1277;104228;-83
2023/03/05 08:57:39;;;;;;;50.30;24.60;;;;;;;0.27;73.82;99869.96;104797;1279;100356;-81
2023/03/05 09:00:25;;;;;;;73.00;30.30;;;;;;;0.31;73.68;99870.29;104891;1277;99351;-86
2023/03/05 09:03:10;;;;;;;119.70;46.60;;;;;;;0.31;73.59;99869.88;104769;1277;97867;-89
2023/03/05 09:06:00;;;;;;;94.40;44.80;;;;;;;0.33;73.60;99870.92;104488;1277;101091;-86
2023/03/05 09:08:45;;;;;;;57.80;28.20;;;;;;;0.37;73.70;99870.45;103757;1274;103524;-75
2023/03/05 09:11:29;;;;;;;54.10;28.60;;;;;;;0.41;73.95;99873.56;104027;1279;100507;-76
2023/03/05 09:14:14;;;;;;;40.00;22.00;;;;;;;0.45;74.01;99871.23;104633;1274;99547;-79
2023/03/05 09:17:01;;;;;;;47.70;25.00;;;;;;;0.47;73.88;99871.25;104657;1274;99354;-77
2023/03/05 09:19:46;;;;;;;70.40;31.70;;;;;;;0.47;73.77;99872.31;104462;1274;99465;-87
2023/03/05 09:22:31;;;;;;;43.50;22.60;;;;;;;0.48;73.88;99876.66;104214;1275;104030;-77
2023/03/05 09:25:16;;;;;;;36.80;20.10;;;;;;;0.48;74.01;99871.00;104303;1274;100462;-84
2023/03/05 09:28:01;;;;;;;38.10;18.10;;;;;;;0.51;74.03;99869.30;104207;1282;99393;-78
2023/03/05 09:30:46;;;;;;;40.60;18.70;;;;;;;0.51;74.04;99872.77;104319;1276;99341;-77
2023/03/05 09:33:32;;;;;;;35.50;17.60;;;;;;;0.54;74.03;99873.25;104261;1279;101018;-78
2023/03/05 09:36:23;;;;;;;41.30;16.60;;;;;;;0.54;74.07;99869.36;104324;1277;104413;-77
2023/03/05 09:39:08;;;;;;;37.20;15.50;;;;;;;0.56;74.04;99869.18;104262;1279;100427;-77
2023/03/05 09:42:32;;;;;;;39.50;17.20;;;;;;;0.56;74.05;99871.63;103970;1280;99366;-77
2023/03/05 09:45:37;;;;;;;48.60;19.70;;;;;;;0.58;74.17;99870.43;104274;1279;99472;-76
2023/03/05 09:48:36;;;;;;;45.10;22.40;;;;;;;0.61;73.97;99871.55;104233;1280;99802;-77
2023/03/05 09:51:24;;;;;;;42.50;20.20;;;;;;;0.62;73.95;99871.59;104118;1279;102819;-76
2023/03/05 09:54:14;;;;;;;25.10;13.80;;;;;;;0.65;74.14;99870.98;104319;1280;99161;-76
2023/03/05 09:57:03;;;;;;;36.50;18.40;;;;;;;0.66;73.61;99869.09;103990;1279;99421;-75
2023/03/05 09:59:56;;;;;;;26.10;12.60;;;;;;;0.69;73.67;99866.02;104213;1277;99322;-76
2023/03/05 10:02:52;;;;;;;30.50;17.30;;;;;;;0.73;73.64;99866.91;104492;1276;99342;-78
2023/03/05 10:06:01;;;;;;;28.10;15.10;;;;;;;0.76;73.63;99867.63;104640;1274;104165;-76
2023/03/05 10:09:01;;;;;;;73.50;34.80;;;;;;;0.80;73.60;99864.15;103940;1279;101025;-78
2023/03/05 10:11:54;;;;;;;29.80;16.70;;;;;;;0.79;73.46;99863.67;104139;1275;99429;-76
2023/03/05 10:14:40;;;;;;;34.60;16.20;;;;;;;0.74;73.32;99861.14;103763;1281;99463;-76
2023/03/05 10:17:38;;;;;;;24.00;12.00;;;;;;;0.73;73.46;99862.14;104052;1274;99799;-78
2023/03/05 10:20:42;;;;;;;18.50;10.30;;;;;;;0.73;73.65;99856.86;104305;1274;104046;-76
2023/03/05 10:23:44;;;;;;;20.60;10.40;;;;;;;0.72;73.78;99855.23;104731;1277;100550;-75
2023/03/05 10:26:43;;;;;;;17.50;9.20;;;;;;;0.70;74.12;99853.49;103799;1274;99480;-75
2023/03/05 10:30:03;;;;;;;21.30;10.10;;;;;;;0.68;74.29;99849.73;103926;1277;99381;-84
2023/03/05 10:33:04;;;;;;;21.40;9.80;;;;;;;0.70;74.87;99846.21;104459;1278;99357;-83
2023/03/05 10:35:57;;;;;;;18.20;8.40;;;;;;;0.71;75.11;99845.58;104801;1278;103393;-77
2023/03/05 10:39:03;;;;;;;23.20;8.80;;;;;;;0.70;75.32;99845.67;104375;1279;100363;-83
2023/03/05 10:42:01;;;;;;;42.80;18.60;;;;;;;0.69;75.63;99841.06;103891;1276;99604;-77
2023/03/05 10:44:51;;;;;;;26.30;11.60;;;;;;;0.70;75.76;99837.11;104347;1277;99431;-85
2023/03/05 10:48:00;;;;;;;18.10;10.40;;;;;;;0.66;75.62;99836.04;104929;1276;99258;-81
2023/03/05 10:50:50;;;;;;;25.30;14.40;;;;;;;0.66;76.31;99829.38;104745;1276;104850;-79
2023/03/05 10:53:47;;;;;;;23.90;14.00;;;;;;;0.67;76.84;99829.63;104349;1275;99360;-85
2023/03/05 10:56:32;;;;;;;40.40;23.70;;;;;;;0.69;77.34;99822.98;104836;1276;99277;-85
2023/03/05 10:59:17;;;;;;;30.40;19.90;;;;;;;0.72;77.32;99820.55;104042;1277;100634;-76
2023/03/05 11:02:07;;;;;;;26.90;15.70;;;;;;;0.76;77.31;99820.73;104993;1278;99778;-76
2023/03/05 11:04:53;;;;;;;52.50;25.10;;;;;;;0.80;77.07;99817.95;104350;1277;102779;-77
2023/03/05 11:07:39;;;;;;;40.30;18.60;;;;;;;0.78;76.84;99817.54;104822;1275;101402;-74
2023/03/05 11:10:24;;;;;;;35.40;17.30;;;;;;;0.76;76.85;99813.34;104660;1279;99472;-86
2023/03/05 11:13:24;;;;;;;29.00;12.60;;;;;;;0.74;77.07;99810.86;103979;1277;99406;-77
2023/03/05 11:16:17;;;;;;;45.90;22.30;;;;;;;0.77;77.54;99809.77;104367;1279;99787;-78
2023/03/05 11:19:19;;;;;;;28.90;17.20;;;;;;;0.77;77.54;99802.73;104087;1279;102653;-77
2023/03/05 11:22:13;;;;;;;16.30;9.20;;;;;;;0.73;77.61;99804.98;104940;1274;100496;-77
2023/03/05 11:25:15;;;;;;;14.40;8.00;;;;;;;0.70;77.70;99804.11;103946;1278;100596;-75
2023/03/05 11:28:01;;;;;;;41.30;22.10;;;;;;;0.66;77.91;99799.70;104144;1279;99365;-83
2023/03/05 11:31:12;;;;;;;42.70;21.70;;;;;;;0.62;78.29;99796.57;104062;1274;99802;-77
2023/03/05 11:34:22;;;;;;;77.60;34.10;;;;;;;0.57;78.83;99794.08;104395;1280;102792;-77
2023/03/05 11:37:25;;;;;;;66.20;32.60;;;;;;;0.54;79.31;99787.13;104490;1277;99255;-78
2023/03/05 11:40:09;;;;;;;39.10;20.00;;;;;;;0.55;79.76;99789.70;104893;1274;99255;-79
2023/03/05 11:42:57;;;;;;;40.90;20.40;;;;;;;0.54;80.01;99785.79;104263;1274;100576;-78
2023/03/05 11:45:43;;;;;;;26.60;14.00;;;;;;;0.53;80.32;99782.70;104122;1279;99642;-79
2023/03/05 11:48:35;;;;;;;18.20;10.00;;;;;;;0.48;80.41;99779.42;104411;1279;103693;-79
2023/03/05 11:51:47;;;;;;;21.00;9.10;;;;;;;0.45;80.78;99775.06;104302;1279;100323;-77
2023/03/05 11:54:47;;;;;;;20.30;9.10;;;;;;;0.47;81.41;99771.00;104854;1279;99466;-80
2023/03/05 11:58:19;;;;;;;20.00;7.50;;;;;;;0.42;80.92;99768.23;105037;1279;99261;-80
2023/03/05 12:01:15;;;;;;;19.80;10.00;;;;;;;0.39;81.41;99766.84;104877;1278;99788;-85
2023/03/05 12:04:01;;;;;;;23.60;13.90;;;;;;;0.41;81.84;99762.56;104630;1274;103477;-84
2023/03/05 12:06:50;;;;;;;19.00;9.20;;;;;;;0.45;81.99;99758.00;104833;1279;100178;-84
2023/03/05 12:10:03;;;;;;;22.60;11.50;;;;;;;0.45;81.86;99755.69;104917;1278;99261;-84
2023/03/05 12:13:30;;;;;;;20.00;12.50;;;;;;;0.45;82.03;99749.24;104721;1274;99277;-82
2023/03/05 12:16:42;;;;;;;29.90;17.10;;;;;;;0.42;81.80;99745.45;104819;1274;99251;-83
2023/03/05 12:19:46;;;;;;;42.50;24.50;;;;;;;0.41;82.03;99739.90;105257;1274;103334;-81
2023/03/05 12:22:42;;;;;;;29.50;17.90;;;;;;;0.41;81.95;99734.33;104779;1280;100408;-82
2023/03/05 12:25:47;;;;;;;16.80;9.70;;;;;;;0.42;82.19;99731.05;104637;1274;99345;-81
2023/03/05 12:28:40;;;;;;;16.20;8.90;;;;;;;0.44;82.32;99728.05;104488;1274;99442;-86
2023/03/05 12:31:36;;;;;;;16.50;8.00;;;;;;;0.47;82.59;99730.01;104663;1280;99362;-77
2023/03/05 12:34:39;;;;;;;16.00;9.90;;;;;;;0.51;82.76;99727.36;103941;1275;102770;-76
2023/03/05 12:37:25;;;;;;;18.70;10.50;;;;;;;0.56;82.91;99721.23;105169;1278;100451;-79
2023/03/05 12:40:30;;;;;;;17.30;8.40;;;;;;;0.60;82.80;99719.81;105536;1274;99386;-84
2023/03/05 12:43:33;;;;;;;19.90;8.00;;;;;;;0.61;82.35;99718.73;105258;1276;99351;-82
2023/03/05 12:46:27;;;;;;;20.70;10.10;;;;;;;0.62;82.42;99719.27;105308;1277;99393;-79